createdAt,value
2022-11-12T00:02:08.658Z,74.30
2022-11-12T00:05:12.785Z,74.33
2022-11-12T00:08:17.623Z,73.79
2022-11-12T00:11:21.675Z,74.48
2022-11-12T00:14:25.902Z,74.62
2022-11-12T00:17:30.165Z,74.05
2022-11-12T00:20:35.062Z,74.50
2022-11-12T00:23:39.213Z,74.87
2022-11-12T00:26:43.512Z,74.78
2022-11-12T00:29:48.213Z,75.32
2022-11-12T00:32:52.503Z,75.25
2022-11-12T00:36:00.718Z,75.57
2022-11-12T00:39:05.254Z,75.39
2022-11-12T00:42:09.546Z,75.98
2022-11-12T00:45:13.781Z,75.99
2022-11-12T00:48:17.954Z,75.94
2022-11-12T00:51:22.987Z,75.87
2022-11-12T00:54:27.213Z,76.11
2022-11-12T00:57:32.005Z,75.56
2022-11-12T01:00:35.971Z,75.53
2022-11-12T01:03:41.287Z,75.47
2022-11-12T01:06:45.614Z,75.48
2022-11-12T01:09:49.955Z,74.80
2022-11-12T01:12:54.730Z,75.14
2022-11-12T01:15:58.965Z,74.71
2022-11-12T01:19:05.362Z,75.44
2022-11-12T01:22:10.977Z,75.18
2022-11-12T01:25:15.088Z,75.34
2022-11-12T01:28:19.810Z,74.89
2022-11-12T01:31:27.190Z,74.86
2022-11-12T01:34:31.220Z,74.99
2022-11-12T01:37:35.681Z,74.44
2022-11-12T01:40:39.994Z,74.60
2022-11-12T01:43:44.503Z,74.58
2022-11-12T01:46:55.258Z,74.69
2022-11-12T01:50:15.041Z,74.73
2022-11-12T01:53:22.940Z,74.23
2022-11-12T01:56:30.853Z,74.80
2022-11-12T01:59:41.634Z,74.49
2022-11-12T02:02:52.731Z,75.14
2022-11-12T02:06:11.513Z,75.04
2022-11-12T02:09:16.393Z,74.97
2022-11-12T02:12:39.730Z,74.52
2022-11-12T02:15:45.155Z,74.69
2022-11-12T02:18:49.429Z,75.00
2022-11-12T02:21:53.498Z,74.57
2022-11-12T02:24:57.563Z,75.22
2022-11-12T02:28:06.310Z,74.76
2022-11-12T02:31:10.470Z,74.93
2022-11-12T02:34:14.826Z,74.83
2022-11-12T02:37:19.417Z,74.87
2022-11-12T02:40:23.711Z,75.06
2022-11-12T02:43:28.022Z,75.23
2022-11-12T02:46:32.226Z,74.42
2022-11-12T02:49:36.449Z,74.39
2022-11-12T02:52:40.954Z,74.44
2022-11-12T02:55:45.457Z,74.80
2022-11-12T02:58:49.669Z,75.12
2022-11-12T03:01:53.822Z,75.87
2022-11-12T03:04:58.016Z,75.89
2022-11-12T03:08:07.909Z,75.92
2022-11-12T03:11:14.959Z,76.11
2022-11-12T03:14:19.286Z,76.46
2022-11-12T03:17:23.421Z,76.26
2022-11-12T03:20:28.162Z,75.73
2022-11-12T03:23:32.460Z,76.04
2022-11-12T03:26:36.626Z,75.69
2022-11-12T03:29:41.069Z,75.91
2022-11-12T03:32:45.304Z,76.13
2022-11-12T03:35:49.690Z,76.26
2022-11-12T03:38:53.867Z,76.98
2022-11-12T03:41:58.299Z,76.77
2022-11-12T03:45:02.854Z,77.24
2022-11-12T03:48:07.191Z,77.30
2022-11-12T03:51:16.253Z,77.54
2022-11-12T03:54:20.186Z,78.10
2022-11-12T03:57:24.168Z,78.43
2022-11-12T04:00:29.158Z,78.49
2022-11-12T04:03:33.145Z,78.70
2022-11-12T04:06:56.090Z,78.79
2022-11-12T04:10:00.582Z,78.96
2022-11-12T04:13:23.281Z,78.56
2022-11-12T04:16:46.193Z,79.27
2022-11-12T04:20:09.078Z,78.70
2022-11-12T04:23:13.427Z,79.03
2022-11-12T04:26:23.411Z,78.80
2022-11-12T04:29:46.211Z,79.20
2022-11-12T04:32:52.258Z,78.71
2022-11-12T04:35:56.525Z,79.21
2022-11-12T04:39:00.863Z,78.91
2022-11-12T04:42:23.894Z,79.21
2022-11-12T04:45:28.203Z,78.84
2022-11-12T04:48:32.650Z,79.25
2022-11-12T04:51:55.517Z,79.07
2022-11-12T04:55:00.373Z,79.61
2022-11-12T04:58:04.686Z,79.47
2022-11-12T05:01:08.914Z,79.48
2022-11-12T05:04:14.197Z,80.14
2022-11-12T05:07:18.825Z,79.83
2022-11-12T05:10:23.393Z,80.13
2022-11-12T05:13:29.346Z,80.63
2022-11-12T05:16:33.526Z,80.69
2022-11-12T05:19:37.850Z,80.44
2022-11-12T05:22:47.695Z,80.57
2022-11-12T05:25:54.747Z,81.03
2022-11-12T05:28:59.156Z,80.54
2022-11-12T05:32:04.758Z,80.07
2022-11-12T05:35:08.907Z,80.13
2022-11-12T05:38:13.389Z,80.15
2022-11-12T05:41:20.332Z,80.54
2022-11-12T05:44:24.944Z,80.10
2022-11-12T05:47:29.146Z,80.42
2022-11-12T05:50:45.414Z,80.14
2022-11-12T05:53:58.247Z,79.94
2022-11-12T05:57:02.560Z,79.86
2022-11-12T06:00:07.720Z,80.16
2022-11-12T06:03:12.708Z,80.20
2022-11-12T06:06:18.275Z,80.13
2022-11-12T06:09:22.504Z,80.41
2022-11-12T06:12:26.803Z,80.40
2022-11-12T06:15:35.217Z,80.02
2022-11-12T06:18:43.511Z,80.13
2022-11-12T06:21:48.318Z,79.76
2022-11-12T06:24:52.615Z,80.07
2022-11-12T06:27:57.035Z,80.02
2022-11-12T06:31:01.133Z,80.08
2022-11-12T06:34:07.171Z,79.67
2022-11-12T06:37:11.466Z,80.11
2022-11-12T06:40:15.773Z,79.57
2022-11-12T06:43:20.087Z,80.25
2022-11-12T06:46:24.368Z,80.11
2022-11-12T06:49:28.666Z,80.55
2022-11-12T06:52:33.053Z,80.60
2022-11-12T06:55:37.431Z,80.56
2022-11-12T06:58:42.578Z,80.72
2022-11-12T07:01:46.702Z,81.38
2022-11-12T07:04:57.133Z,81.07
2022-11-12T07:08:08.786Z,81.50
2022-11-12T07:11:13.900Z,81.50
2022-11-12T07:14:18.472Z,81.23
2022-11-12T07:17:23.094Z,81.64
2022-11-12T07:20:27.222Z,81.77
2022-11-12T07:23:33.500Z,81.44
2022-11-12T07:26:38.552Z,81.99
2022-11-12T07:29:48.527Z,81.75
2022-11-12T07:32:53.596Z,81.48
2022-11-12T07:36:03.890Z,82.04
2022-11-12T07:39:07.947Z,82.13
2022-11-12T07:42:12.282Z,82.13
2022-11-12T07:45:16.790Z,82.04
2022-11-12T07:48:21.056Z,82.19
2022-11-12T07:51:28.041Z,82.21
2022-11-12T07:54:32.924Z,82.74
2022-11-12T07:57:37.290Z,82.00
2022-11-12T08:00:41.765Z,82.19
2022-11-12T08:03:46.029Z,82.64
2022-11-12T08:06:52.996Z,82.69
2022-11-12T08:10:02.154Z,82.47
2022-11-12T08:13:06.868Z,82.62
2022-11-12T08:16:17.138Z,82.11
2022-11-12T08:19:25.283Z,82.69
2022-11-12T08:22:34.396Z,82.41
2022-11-12T08:25:38.856Z,82.30
2022-11-12T08:28:43.223Z,82.57
2022-11-12T08:31:48.673Z,82.85
2022-11-12T08:34:53.080Z,82.75
2022-11-12T08:38:00.237Z,82.41
2022-11-12T08:41:11.221Z,82.53
2022-11-12T08:44:15.926Z,82.14
2022-11-12T08:47:21.166Z,82.19
2022-11-12T08:50:26.505Z,82.35
2022-11-12T08:53:44.713Z,82.23
2022-11-12T08:56:49.311Z,82.35
2022-11-12T08:59:54.259Z,82.33
2022-11-12T09:03:08.765Z,81.95
2022-11-12T09:06:14.268Z,81.86
2022-11-12T09:09:18.693Z,82.11
2022-11-12T09:12:23.715Z,82.03
2022-11-12T09:15:38.231Z,81.97
2022-11-12T09:18:43.669Z,82.17
2022-11-12T09:21:48.145Z,82.39
2022-11-12T09:24:53.162Z,82.04
2022-11-12T09:27:57.583Z,81.80
2022-11-12T09:31:02.131Z,81.49
2022-11-12T09:34:06.256Z,81.90
2022-11-12T09:37:10.678Z,81.69
2022-11-12T09:40:19.879Z,81.86
2022-11-12T09:44:10.737Z,81.93
2022-11-12T09:47:41.486Z,82.55
2022-11-12T09:50:59.204Z,82.11
2022-11-12T09:54:19.536Z,82.24
2022-11-12T09:57:24.051Z,82.37
2022-11-12T10:00:29.894Z,82.45
2022-11-12T10:03:52.627Z,82.35
2022-11-12T10:07:24.246Z,83.23
2022-11-12T10:10:41.977Z,83.22
2022-11-12T10:14:02.064Z,83.21
2022-11-12T10:17:19.805Z,83.33
2022-11-12T10:20:37.560Z,83.40
2022-11-12T10:23:46.370Z,83.33
2022-11-12T10:26:52.250Z,82.70
2022-11-12T10:30:06.645Z,82.86
2022-11-12T10:33:15.253Z,82.85
2022-11-12T10:36:28.929Z,82.59
2022-11-12T10:39:39.134Z,82.83
2022-11-12T10:43:20.179Z,82.80
2022-11-12T10:46:35.178Z,83.17
2022-11-12T10:49:39.474Z,83.19
2022-11-12T10:53:04.734Z,83.08
2022-11-12T10:56:29.503Z,82.22
2022-11-12T10:59:34.064Z,81.65
2022-11-12T11:02:46.502Z,82.37
2022-11-12T11:05:53.801Z,82.67
2022-11-12T11:09:13.204Z,82.30
2022-11-12T11:12:26.555Z,82.11
2022-11-12T11:15:30.948Z,82.19
2022-11-12T11:18:38.579Z,81.93
2022-11-12T11:21:48.632Z,82.02
2022-11-12T11:24:58.771Z,81.77
2022-11-12T11:28:24.879Z,81.20
2022-11-12T11:31:40.203Z,81.47
2022-11-12T11:35:19.816Z,80.96
2022-11-12T11:38:39.123Z,80.98
2022-11-12T11:41:57.671Z,80.96
2022-11-12T11:45:24.036Z,80.26
2022-11-12T11:48:31.271Z,80.25
2022-11-12T11:52:02.431Z,79.77
2022-11-12T11:55:06.700Z,79.67
2022-11-12T11:58:39.012Z,79.27
2022-11-12T12:01:54.962Z,78.86
2022-11-12T12:05:11.367Z,78.94
2022-11-12T12:08:51.021Z,78.93
2022-11-12T12:12:18.785Z,78.86
2022-11-12T12:15:46.993Z,78.64
2022-11-12T12:18:57.581Z,79.14
2022-11-12T12:22:06.406Z,79.05
2022-11-12T12:25:34.277Z,78.75
2022-11-12T12:28:38.842Z,78.53
2022-11-12T12:32:23.990Z,78.21
2022-11-12T12:36:11.340Z,78.15
2022-11-12T12:39:19.684Z,78.02
2022-11-12T12:42:33.926Z,78.35
2022-11-12T12:45:43.990Z,78.26
2022-11-12T12:48:51.701Z,78.74
2022-11-12T12:51:56.233Z,78.85
2022-11-12T12:55:01.868Z,78.25
2022-11-12T12:58:24.008Z,78.41
2022-11-12T13:01:31.574Z,78.24
2022-11-12T13:04:53.979Z,78.24
2022-11-12T13:08:04.435Z,77.90
2022-11-12T13:11:09.308Z,78.00
2022-11-12T13:14:35.004Z,77.77
2022-11-12T13:17:47.919Z,77.90
2022-11-12T13:21:17.924Z,78.13
2022-11-12T13:25:00.440Z,78.06
2022-11-12T13:28:07.362Z,77.78
2022-11-12T13:31:28.230Z,77.88
2022-11-12T13:34:34.033Z,77.48
2022-11-12T13:38:04.221Z,77.26
2022-11-12T13:41:42.592Z,77.07
2022-11-12T13:44:54.927Z,77.08
2022-11-12T13:48:00.452Z,77.33
2022-11-12T13:51:34.295Z,77.90
2022-11-12T13:54:39.259Z,77.80
2022-11-12T13:57:54.873Z,77.30
2022-11-12T14:01:04.797Z,76.85
2022-11-12T14:04:13.671Z,76.36
2022-11-12T14:07:48.266Z,76.54
2022-11-12T14:11:30.371Z,76.41
2022-11-12T14:14:47.020Z,75.43
2022-11-12T14:18:02.326Z,75.80
2022-11-12T14:21:15.310Z,76.21
2022-11-12T14:24:20.587Z,76.46
2022-11-12T14:27:34.298Z,75.96
2022-11-12T14:30:44.729Z,75.90
2022-11-12T14:33:49.060Z,75.39
2022-11-12T14:36:56.396Z,75.14
2022-11-12T14:40:01.147Z,74.83
2022-11-12T14:43:06.026Z,75.12
2022-11-12T14:46:23.512Z,74.56
2022-11-12T14:49:45.810Z,74.52
2022-11-12T14:53:13.553Z,74.59
2022-11-12T14:56:42.648Z,74.95
2022-11-12T14:59:47.531Z,75.58
2022-11-12T15:02:59.254Z,75.72
2022-11-12T15:06:03.730Z,75.95
2022-11-12T15:09:08.963Z,75.94
2022-11-12T15:12:22.522Z,75.93
2022-11-12T15:15:27.366Z,76.33
2022-11-12T15:18:33.615Z,76.09
2022-11-12T15:21:45.234Z,75.62
2022-11-12T15:24:49.877Z,75.53
2022-11-12T15:27:54.286Z,74.86
2022-11-12T15:31:07.203Z,75.54
2022-11-12T15:34:39.973Z,75.77
2022-11-12T15:37:44.954Z,76.20
2022-11-12T15:40:57.540Z,75.93
2022-11-12T15:44:02.615Z,75.88
2022-11-12T15:47:15.317Z,75.72
2022-11-12T15:50:21.780Z,75.66
2022-11-12T15:53:26.722Z,75.51
2022-11-12T15:56:31.495Z,75.31
2022-11-12T15:59:36.114Z,75.27
2022-11-12T16:02:40.747Z,74.88
2022-11-12T16:05:45.779Z,75.34
2022-11-12T16:08:50.890Z,75.61
2022-11-12T16:11:57.454Z,75.65
2022-11-12T16:15:02.293Z,76.10
2022-11-12T16:18:16.667Z,76.07
2022-11-12T16:21:26.496Z,75.61
2022-11-12T16:24:30.831Z,75.80
2022-11-12T16:27:38.242Z,75.92
2022-11-12T16:30:44.825Z,76.12
2022-11-12T16:33:49.637Z,76.33
2022-11-12T16:36:54.813Z,76.84
2022-11-12T16:39:59.213Z,76.90
2022-11-12T16:43:03.651Z,76.70
2022-11-12T16:46:21.213Z,76.57
2022-11-12T16:49:26.277Z,76.40
2022-11-12T16:52:30.602Z,76.35
2022-11-12T16:55:35.350Z,76.13
2022-11-12T16:58:41.306Z,76.13
2022-11-12T17:01:46.055Z,75.99
2022-11-12T17:04:50.455Z,75.65
2022-11-12T17:07:57.641Z,75.59
2022-11-12T17:11:07.185Z,75.18
2022-11-12T17:14:12.073Z,75.63
2022-11-12T17:17:19.555Z,75.81
2022-11-12T17:20:31.277Z,75.47
2022-11-12T17:23:36.562Z,75.39
2022-11-12T17:26:52.192Z,75.24
2022-11-12T17:29:57.197Z,75.25
2022-11-12T17:33:02.594Z,74.92
2022-11-12T17:39:57.402Z,74.86
2022-11-12T17:43:03.022Z,74.79
2022-11-12T17:46:09.238Z,74.50
2022-11-12T17:49:15.198Z,74.12
2022-11-12T17:52:19.378Z,73.73
2022-11-12T17:55:05.211Z,74.17
2022-11-12T17:57:55.755Z,73.88
2022-11-12T18:01:12.908Z,73.96
2022-11-12T18:04:17.339Z,73.73
2022-11-12T18:07:21.640Z,73.95
2022-11-12T18:10:26.659Z,74.24
2022-11-12T18:13:31.850Z,74.10
2022-11-12T18:16:36.824Z,73.80
2022-11-12T18:19:41.188Z,73.16
2022-11-12T18:22:47.234Z,73.38
2022-11-12T18:25:51.851Z,72.59
2022-11-12T18:28:58.089Z,73.04
2022-11-12T18:32:02.694Z,72.98
2022-11-12T18:35:08.304Z,73.55
2022-11-12T18:38:12.587Z,73.75
2022-11-12T18:41:21.375Z,74.05
2022-11-12T18:44:26.215Z,73.68
2022-11-12T18:47:30.745Z,73.89
2022-11-12T18:50:35.297Z,73.79
2022-11-12T18:53:40.542Z,73.95
2022-11-12T18:56:44.897Z,73.22
2022-11-12T18:59:52.863Z,73.35
2022-11-12T19:02:57.426Z,72.67
2022-11-12T19:06:04.686Z,73.02
2022-11-12T19:09:12.426Z,72.79
2022-11-12T19:12:17.814Z,72.39
2022-11-12T19:15:26.791Z,72.56
2022-11-12T19:18:32.630Z,72.86
2022-11-12T19:21:37.714Z,72.50
2022-11-12T19:24:42.112Z,72.57
2022-11-12T19:27:46.501Z,72.52
2022-11-12T19:30:51.119Z,72.62
2022-11-12T19:33:55.826Z,72.31
2022-11-12T19:40:26.363Z,72.60
2022-11-12T19:43:30.962Z,72.78
2022-11-12T19:46:36.435Z,72.91
2022-11-12T19:49:41.350Z,73.13
2022-11-12T19:52:46.380Z,73.48
2022-11-12T19:55:52.010Z,73.65
2022-11-12T19:58:56.877Z,74.00
2022-11-12T20:02:01.324Z,74.45
2022-11-12T20:05:06.445Z,74.70
2022-11-12T20:08:10.948Z,74.76
2022-11-12T20:11:21.363Z,75.22
2022-11-12T20:14:27.415Z,75.23
2022-11-12T20:17:33.234Z,74.78
2022-11-12T20:20:37.314Z,75.10
2022-11-12T20:23:43.078Z,74.91
2022-11-12T20:26:48.293Z,74.68
2022-11-12T20:29:52.345Z,75.16
2022-11-12T20:32:56.571Z,75.31
2022-11-12T20:36:07.302Z,75.41
2022-11-12T20:39:13.132Z,76.14
2022-11-12T20:42:17.660Z,75.93
2022-11-12T20:45:21.692Z,76.00
2022-11-12T20:48:26.669Z,75.82
2022-11-12T20:51:32.977Z,75.66
2022-11-12T20:54:37.722Z,76.39
2022-11-12T20:57:42.298Z,75.95
2022-11-12T21:00:46.767Z,76.22
2022-11-12T21:03:52.093Z,76.72
2022-11-12T21:06:59.765Z,76.64
2022-11-12T21:10:09.066Z,76.76
2022-11-12T21:13:14.154Z,77.06
2022-11-12T21:16:18.807Z,76.49
2022-11-12T21:19:23.783Z,76.73
2022-11-12T21:22:28.452Z,76.86
2022-11-12T21:25:36.961Z,76.66
2022-11-12T21:28:46.470Z,76.39
2022-11-12T21:31:51.191Z,77.04
2022-11-12T21:34:55.747Z,76.55
2022-11-12T21:37:59.619Z,76.96
2022-11-12T21:41:09.846Z,77.03
2022-11-12T21:44:14.269Z,76.96
2022-11-12T21:47:18.494Z,76.30
2022-11-12T21:50:22.922Z,76.50
2022-11-12T21:53:27.458Z,76.79
2022-11-12T21:56:34.095Z,76.57
2022-11-12T21:59:38.733Z,76.81
2022-11-12T22:02:43.130Z,76.25
2022-11-12T22:05:47.307Z,76.98
2022-11-12T22:08:56.296Z,77.16
2022-11-12T22:12:00.797Z,77.00
2022-11-12T22:15:05.562Z,76.83
2022-11-12T22:18:09.735Z,77.09
2022-11-12T22:21:16.806Z,77.00
2022-11-12T22:24:21.359Z,77.13
2022-11-12T22:27:25.799Z,77.74
2022-11-12T22:30:30.025Z,77.42
2022-11-12T22:33:35.306Z,76.82
2022-11-12T22:36:39.586Z,77.09
2022-11-12T22:39:43.898Z,77.16
2022-11-12T22:42:48.174Z,77.34
2022-11-12T22:45:52.603Z,77.37
2022-11-12T22:48:57.112Z,77.15
2022-11-12T22:52:01.584Z,76.80
2022-11-12T22:55:06.080Z,76.69
2022-11-12T22:58:10.536Z,76.81
2022-11-12T23:01:29.374Z,76.50
2022-11-12T23:04:33.679Z,76.46
2022-11-12T23:07:37.976Z,76.15
2022-11-12T23:10:45.824Z,76.44
2022-11-12T23:13:50.516Z,76.54
2022-11-12T23:16:58.742Z,76.27
2022-11-12T23:20:03.632Z,76.51
2022-11-12T23:23:07.582Z,76.43
2022-11-12T23:26:17.905Z,76.88
2022-11-12T23:29:22.537Z,76.17
2022-11-12T23:32:26.951Z,76.57
2022-11-12T23:35:31.199Z,76.57
2022-11-12T23:38:35.512Z,76.62
2022-11-12T23:41:39.524Z,76.39
2022-11-12T23:44:45.303Z,76.49
2022-11-12T23:47:49.556Z,77.04
2022-11-12T23:51:20.950Z,77.24
2022-11-12T23:54:24.964Z,76.96
2022-11-12T23:57:29.365Z,77.30
